Terminal Aerodrome Forecast
Issued by NWS Duluth, MN

Home | Current Version | Previous Version | Text Only | Print | Product List | Glossary On
Versions: 1 2 3 4 5 6 7 8 9 10 11 12 13 14 15 16 17 18 19 20 21 22 23
000
FTUS43 KDLH 221733
TAFINL
TAF
KINL 221733Z 2218/2318 30014G22KT P6SM VCSH BKN045
     FM230000 33011KT P6SM BKN060
     FM230100 33009KT P6SM SCT090
     FM231400 34005KT P6SM SCT050=

USA.gov is the U.S. government's official web portal to all federal, state and local government web resources and services.